createdAt,value
2022-12-16T00:01:08.051Z,41.93
2022-12-16T00:03:36.517Z,46.43
2022-12-16T00:06:04.792Z,44.13
2022-12-16T00:08:36.663Z,41.37
2022-12-16T00:11:06.032Z,43.50
2022-12-16T00:13:34.263Z,48.90
2022-12-16T00:16:06.233Z,42.60
2022-12-16T00:18:33.566Z,50.30
2022-12-16T00:21:01.013Z,50.20
2022-12-16T00:23:28.746Z,47.77
2022-12-16T00:25:56.069Z,40.47
2022-12-16T00:28:24.656Z,45.50
2022-12-16T00:30:55.229Z,43.33
2022-12-16T00:33:24.094Z,48.17
2022-12-16T00:35:51.736Z,45.20
2022-12-16T00:38:19.213Z,47.63
2022-12-16T00:40:46.686Z,44.83
2022-12-16T00:43:13.516Z,42.83
2022-12-16T00:45:42.091Z,48.50
2022-12-16T00:48:09.189Z,42.43
2022-12-16T00:50:36.881Z,41.33
2022-12-16T00:53:04.189Z,44.77
2022-12-16T00:55:32.850Z,52.13
2022-12-16T00:57:59.867Z,44.23
2022-12-16T01:00:27.376Z,40.07
2022-12-16T01:02:55.735Z,40.90
2022-12-16T01:05:27.186Z,50.53
2022-12-16T01:07:55.187Z,45.37
2022-12-16T01:10:23.527Z,44.50
2022-12-16T01:12:50.999Z,40.93
2022-12-16T01:15:19.199Z,48.00
2022-12-16T01:17:46.368Z,37.60
2022-12-16T01:20:15.350Z,44.70
2022-12-16T01:22:45.486Z,42.17
2022-12-16T01:25:15.548Z,38.60
2022-12-16T01:27:42.449Z,44.97
2022-12-16T01:30:11.244Z,42.40
2022-12-16T01:32:38.339Z,43.40
2022-12-16T01:35:18.139Z,40.67
2022-12-16T01:37:55.023Z,38.63
2022-12-16T01:40:25.197Z,41.07
2022-12-16T01:42:52.045Z,39.67
2022-12-16T01:45:34.763Z,39.90
2022-12-16T01:48:15.893Z,40.23
2022-12-16T01:50:43.165Z,42.00
2022-12-16T01:53:11.877Z,42.30
2022-12-16T01:55:42.598Z,45.33
2022-12-16T01:58:15.714Z,41.90
2022-12-16T02:00:42.784Z,40.07
2022-12-16T02:03:11.086Z,48.37
2022-12-16T02:05:41.551Z,42.40
2022-12-16T02:08:14.301Z,39.57
2022-12-16T02:11:04.639Z,46.47
2022-12-16T02:13:42.800Z,35.63
2022-12-16T02:16:17.403Z,40.47
2022-12-16T02:18:53.325Z,39.63
2022-12-16T02:21:39.251Z,39.73
2022-12-16T02:24:44.599Z,41.57
2022-12-16T02:27:40.767Z,45.90
2022-12-16T02:30:42.517Z,42.43
2022-12-16T02:33:22.888Z,39.27
2022-12-16T02:35:56.265Z,35.20
2022-12-16T02:38:27.191Z,42.03
2022-12-16T02:41:00.538Z,42.70
2022-12-16T02:43:46.443Z,39.60
2022-12-16T02:46:15.200Z,43.57
2022-12-16T02:48:42.554Z,42.53
2022-12-16T02:51:09.997Z,39.10
2022-12-16T02:53:40.199Z,40.33
2022-12-16T02:56:23.381Z,39.83
2022-12-16T02:58:58.847Z,39.43
2022-12-16T03:01:35.295Z,38.43
2022-12-16T03:04:07.553Z,35.93
2022-12-16T03:06:36.945Z,38.83
2022-12-16T03:09:09.259Z,39.03
2022-12-16T03:11:41.136Z,38.67
2022-12-16T03:14:11.313Z,40.47
2022-12-16T03:16:40.269Z,37.10
2022-12-16T03:19:12.071Z,44.80
2022-12-16T03:21:43.968Z,41.63
2022-12-16T03:24:14.305Z,39.13
2022-12-16T03:26:49.324Z,38.73
2022-12-16T03:29:23.239Z,37.70
2022-12-16T03:31:56.578Z,42.27
2022-12-16T03:34:33.155Z,39.50
2022-12-16T03:37:03.731Z,43.17
2022-12-16T03:39:33.461Z,38.80
2022-12-16T03:42:01.945Z,38.87
2022-12-16T03:44:29.803Z,43.87
2022-12-16T03:46:58.311Z,31.37
2022-12-16T03:49:26.298Z,35.10
2022-12-16T03:51:54.341Z,36.33
2022-12-16T03:54:21.956Z,36.13
2022-12-16T03:56:48.910Z,41.33
2022-12-16T03:59:16.404Z,39.23
2022-12-16T04:01:43.915Z,37.47
2022-12-16T04:04:12.960Z,36.27
2022-12-16T04:06:40.143Z,37.57
2022-12-16T04:09:07.176Z,34.30
2022-12-16T04:11:53.129Z,36.30
2022-12-16T04:14:39.231Z,38.13
2022-12-16T04:17:25.160Z,33.87
2022-12-16T04:20:12.446Z,28.43
2022-12-16T04:22:59.798Z,36.20
2022-12-16T04:25:31.040Z,33.93
2022-12-16T04:27:58.620Z,31.20
2022-12-16T04:30:27.964Z,33.10
2022-12-16T04:33:17.176Z,38.20
2022-12-16T04:36:04.891Z,36.17
2022-12-16T04:38:51.169Z,36.07
2022-12-16T04:41:37.413Z,31.37
2022-12-16T04:44:24.005Z,37.43
2022-12-16T04:47:09.636Z,34.17
2022-12-16T04:49:55.514Z,35.37
2022-12-16T04:52:43.091Z,36.50
2022-12-16T04:55:29.606Z,37.70
2022-12-16T04:58:17.755Z,35.47
2022-12-16T05:01:04.751Z,43.13
2022-12-16T05:03:50.923Z,43.63
2022-12-16T05:06:36.716Z,43.17
2022-12-16T05:09:25.335Z,36.63
2022-12-16T05:12:10.939Z,44.67
2022-12-16T05:14:56.313Z,40.93
2022-12-16T05:17:42.306Z,42.77
2022-12-16T05:20:28.975Z,36.33
2022-12-16T05:23:14.990Z,35.97
2022-12-16T05:26:02.625Z,42.13
2022-12-16T05:28:48.145Z,31.87
2022-12-16T05:31:34.530Z,31.97
2022-12-16T05:34:20.223Z,34.27
2022-12-16T05:37:05.593Z,33.50
2022-12-16T05:39:51.639Z,38.97
2022-12-16T05:42:38.520Z,40.63
2022-12-16T05:45:25.025Z,36.17
2022-12-16T05:48:10.311Z,34.40
2022-12-16T05:51:09.783Z,36.70
2022-12-16T05:53:55.194Z,35.57
2022-12-16T05:56:41.047Z,37.13
2022-12-16T05:59:28.205Z,34.87
2022-12-16T06:02:13.867Z,44.20
2022-12-16T06:05:01.506Z,40.63
2022-12-16T06:07:47.197Z,33.77
2022-12-16T06:10:33.577Z,34.73
2022-12-16T06:13:18.914Z,43.40
2022-12-16T06:16:08.964Z,35.70
2022-12-16T06:18:54.660Z,37.87
2022-12-16T06:21:40.838Z,36.87
2022-12-16T06:24:26.791Z,37.73
2022-12-16T06:27:12.726Z,38.47
2022-12-16T06:29:58.459Z,37.63
2022-12-16T06:32:45.275Z,36.80
2022-12-16T06:35:31.073Z,34.67
2022-12-16T06:38:16.566Z,39.47
2022-12-16T06:41:02.288Z,40.70
2022-12-16T06:43:47.661Z,38.97
2022-12-16T06:46:33.709Z,36.43
2022-12-16T06:49:20.733Z,39.10
2022-12-16T06:52:06.420Z,40.93
2022-12-16T06:54:51.966Z,45.27
2022-12-16T06:57:45.403Z,40.07
2022-12-16T07:00:32.205Z,41.43
2022-12-16T07:03:17.773Z,37.57
2022-12-16T07:06:05.194Z,42.87
2022-12-16T07:08:50.890Z,43.93
2022-12-16T07:11:36.315Z,47.40
2022-12-16T07:14:21.809Z,41.33
2022-12-16T07:17:09.275Z,41.67
2022-12-16T07:19:56.364Z,38.80
2022-12-16T07:22:43.387Z,44.60
2022-12-16T07:25:28.942Z,44.57
2022-12-16T07:28:15.883Z,42.17
2022-12-16T07:31:02.352Z,42.17
2022-12-16T07:33:47.603Z,37.87
2022-12-16T07:36:33.594Z,44.07
2022-12-16T07:39:20.428Z,40.80
2022-12-16T07:42:05.927Z,45.03
2022-12-16T07:44:51.504Z,42.70
2022-12-16T07:47:37.525Z,47.90
2022-12-16T07:50:23.598Z,43.90
2022-12-16T07:53:13.224Z,45.50
2022-12-16T07:56:00.245Z,41.93
2022-12-16T07:58:45.924Z,44.13
2022-12-16T08:01:31.687Z,43.03
2022-12-16T08:04:17.170Z,45.40
2022-12-16T08:07:03.020Z,45.83
2022-12-16T08:09:48.474Z,48.83
2022-12-16T08:12:35.615Z,46.97
2022-12-16T08:15:21.236Z,47.03
2022-12-16T08:18:11.008Z,48.83
2022-12-16T08:20:57.355Z,52.97
2022-12-16T08:23:42.794Z,47.17
2022-12-16T08:26:42.950Z,44.53
2022-12-16T08:29:46.150Z,46.27
2022-12-16T08:32:32.337Z,40.60
2022-12-16T08:35:17.954Z,41.43
2022-12-16T08:38:13.739Z,42.30
2022-12-16T08:41:01.320Z,50.17
2022-12-16T08:43:48.904Z,51.00
2022-12-16T08:46:36.071Z,51.47
2022-12-16T08:49:21.869Z,60.03
2022-12-16T08:52:07.369Z,51.70
2022-12-16T08:54:52.910Z,46.43
2022-12-16T08:57:38.780Z,46.97
2022-12-16T09:00:25.545Z,54.60
2022-12-16T09:03:14.493Z,50.47
2022-12-16T09:06:00.392Z,52.83
2022-12-16T09:08:46.058Z,51.63
2022-12-16T09:11:52.164Z,55.53
2022-12-16T09:14:37.833Z,52.70
2022-12-16T09:17:23.564Z,58.47
2022-12-16T09:20:10.444Z,52.60
2022-12-16T09:22:55.886Z,51.23
2022-12-16T09:25:44.459Z,49.97
2022-12-16T09:28:29.833Z,50.43
2022-12-16T09:31:15.356Z,55.67
2022-12-16T09:34:00.700Z,58.93
2022-12-16T09:36:47.998Z,57.47
2022-12-16T09:39:33.273Z,50.43
2022-12-16T09:42:25.783Z,55.00
2022-12-16T09:45:19.955Z,47.37
2022-12-16T09:48:15.134Z,57.07
2022-12-16T09:51:03.098Z,48.23
2022-12-16T09:53:54.556Z,54.30
2022-12-16T09:56:48.177Z,77.47
2022-12-16T09:59:38.503Z,63.03
2022-12-16T10:02:30.144Z,53.93
2022-12-16T10:05:15.641Z,49.07
2022-12-16T10:08:06.229Z,51.80
2022-12-16T10:11:00.026Z,54.23
2022-12-16T10:13:51.405Z,55.13
2022-12-16T10:16:47.813Z,41.20
2022-12-16T10:19:45.660Z,48.13
2022-12-16T10:22:39.117Z,54.90
2022-12-16T10:25:32.513Z,55.83
2022-12-16T10:28:30.010Z,49.57
2022-12-16T10:31:15.554Z,49.83
2022-12-16T10:34:04.446Z,45.57
2022-12-16T10:36:50.727Z,43.77
2022-12-16T10:39:43.829Z,50.40
2022-12-16T10:42:39.115Z,54.20
2022-12-16T10:45:35.245Z,48.10
2022-12-16T10:48:20.925Z,46.40
2022-12-16T10:51:06.248Z,44.67
2022-12-16T10:53:53.223Z,48.67
2022-12-16T10:57:02.585Z,48.70
2022-12-16T10:59:54.738Z,42.50
2022-12-16T11:02:44.035Z,50.40
2022-12-16T11:05:48.417Z,47.20
2022-12-16T11:08:48.566Z,52.27
2022-12-16T11:11:57.826Z,41.50
2022-12-16T11:15:28.115Z,46.30
2022-12-16T11:17:52.172Z,46.97
2022-12-16T11:20:40.332Z,45.30
2022-12-16T11:23:28.031Z,43.23
2022-12-16T11:26:34.549Z,45.97
2022-12-16T11:29:33.498Z,42.77
2022-12-16T11:32:24.165Z,51.53
2022-12-16T11:35:15.868Z,37.40
2022-12-16T11:38:02.773Z,51.97
2022-12-16T11:40:49.019Z,46.47
2022-12-16T11:43:37.123Z,46.80
2022-12-16T11:46:28.883Z,55.67
2022-12-16T11:49:23.490Z,43.63
2022-12-16T11:52:36.043Z,39.50
2022-12-16T11:56:03.688Z,39.67
2022-12-16T11:58:44.500Z,40.80
2022-12-16T12:01:40.092Z,38.03
2022-12-16T12:04:30.038Z,39.80
2022-12-16T12:07:44.970Z,38.13
2022-12-16T12:10:51.627Z,36.67
2022-12-16T12:13:49.623Z,41.20
2022-12-16T12:16:43.799Z,42.50
2022-12-16T12:19:42.202Z,42.53
2022-12-16T12:22:44.086Z,37.47
2022-12-16T12:25:38.801Z,38.20
2022-12-16T12:28:33.757Z,37.57
2022-12-16T12:31:33.352Z,38.90
2022-12-16T12:34:27.955Z,39.90
2022-12-16T12:37:21.011Z,39.60
2022-12-16T12:40:12.455Z,35.33
2022-12-16T12:43:05.085Z,43.43
2022-12-16T12:46:07.782Z,45.07
2022-12-16T12:49:00.994Z,42.23
2022-12-16T12:51:54.092Z,40.67
2022-12-16T12:54:47.572Z,51.60
2022-12-16T12:57:38.943Z,44.00
2022-12-16T13:00:33.315Z,47.03
2022-12-16T13:03:23.926Z,47.20
2022-12-16T13:06:10.360Z,53.37
2022-12-16T13:09:12.791Z,44.33
2022-12-16T13:12:22.289Z,44.80
2022-12-16T13:15:21.387Z,40.80
2022-12-16T13:18:31.992Z,47.87
2022-12-16T13:21:18.311Z,44.53
2022-12-16T13:24:04.531Z,43.80
2022-12-16T13:26:52.607Z,44.13
2022-12-16T13:29:41.285Z,47.23
2022-12-16T13:32:37.133Z,42.40
2022-12-16T13:35:36.605Z,41.93
2022-12-16T13:38:24.918Z,48.27
2022-12-16T13:41:13.810Z,45.47
2022-12-16T13:44:08.057Z,39.20
2022-12-16T13:47:01.990Z,44.83
2022-12-16T13:50:04.911Z,51.70
2022-12-16T13:53:02.810Z,48.93
2022-12-16T13:55:51.600Z,55.00
2022-12-16T13:58:51.177Z,47.37
2022-12-16T14:01:45.913Z,47.33
2022-12-16T14:04:44.879Z,50.50
2022-12-16T14:07:33.094Z,58.10
2022-12-16T14:10:19.752Z,51.00
2022-12-16T14:13:18.623Z,54.87
2022-12-16T14:16:13.074Z,50.00
2022-12-16T14:19:21.732Z,48.23
2022-12-16T14:22:11.144Z,53.67
2022-12-16T14:24:58.346Z,57.87
2022-12-16T14:27:44.413Z,55.50
2022-12-16T14:30:37.783Z,55.93
2022-12-16T14:33:40.676Z,52.47
2022-12-16T14:36:38.663Z,48.73
2022-12-16T14:39:29.235Z,46.87
2022-12-16T14:42:16.224Z,52.70
2022-12-16T14:45:06.511Z,56.67
2022-12-16T14:47:51.979Z,49.67
2022-12-16T14:50:41.346Z,52.53
2022-12-16T14:53:36.177Z,52.30
2022-12-16T14:56:33.525Z,53.17
2022-12-16T14:59:34.349Z,50.60
2022-12-16T15:02:33.792Z,50.90
2022-12-16T15:05:20.529Z,51.90
2022-12-16T15:08:06.471Z,61.73
2022-12-16T15:10:53.144Z,58.03
2022-12-16T15:13:40.621Z,56.03
2022-12-16T15:16:35.609Z,53.80
2022-12-16T15:19:22.144Z,57.83
2022-12-16T15:22:08.561Z,61.47
2022-12-16T15:24:57.000Z,65.13
2022-12-16T15:27:44.471Z,53.43
2022-12-16T15:30:53.598Z,57.33
2022-12-16T15:33:42.575Z,57.70
2022-12-16T15:36:42.857Z,83.03
2022-12-16T15:39:33.230Z,64.40
2022-12-16T15:42:18.628Z,56.23
2022-12-16T15:45:08.032Z,57.67
2022-12-16T15:47:55.744Z,56.83
2022-12-16T15:50:56.651Z,59.43
2022-12-16T15:53:48.792Z,53.93
2022-12-16T15:56:40.294Z,62.77
2022-12-16T15:59:33.769Z,52.67
2022-12-16T16:02:25.454Z,57.97
2022-12-16T16:05:12.781Z,61.40
2022-12-16T16:08:03.821Z,58.23
2022-12-16T16:10:51.512Z,62.57
2022-12-16T16:13:37.272Z,61.80
2022-12-16T16:16:23.453Z,59.37
2022-12-16T16:19:08.920Z,58.40
2022-12-16T16:21:54.415Z,60.00
2022-12-16T16:24:41.093Z,64.67
2022-12-16T16:27:30.962Z,57.40
2022-12-16T16:30:17.579Z,57.03
2022-12-16T16:33:03.830Z,59.80
2022-12-16T16:35:51.321Z,57.03
2022-12-16T16:38:36.817Z,56.47
2022-12-16T16:41:24.319Z,60.03
2022-12-16T16:44:09.543Z,56.63
2022-12-16T16:46:57.184Z,63.07
2022-12-16T16:49:44.181Z,62.80
2022-12-16T16:52:31.862Z,60.73
2022-12-16T16:55:17.696Z,62.53
2022-12-16T16:58:04.748Z,66.53
2022-12-16T17:00:50.537Z,70.40
2022-12-16T17:03:37.230Z,73.87
2022-12-16T17:06:23.393Z,78.63
2022-12-16T17:09:08.848Z,97.53
2022-12-16T17:11:56.779Z,67.43
2022-12-16T17:14:43.371Z,73.23
2022-12-16T17:17:29.559Z,75.50
2022-12-16T17:20:15.417Z,74.33
2022-12-16T17:23:01.198Z,70.77
2022-12-16T17:25:46.819Z,72.20
2022-12-16T17:28:32.377Z,66.77
2022-12-16T17:31:19.531Z,69.47
2022-12-16T17:34:04.930Z,73.30
2022-12-16T17:36:50.426Z,65.17
2022-12-16T17:39:35.738Z,84.67
2022-12-16T17:42:21.442Z,73.47
2022-12-16T17:45:06.692Z,70.77
2022-12-16T17:47:53.675Z,66.20
2022-12-16T17:50:39.321Z,61.90
2022-12-16T17:53:24.618Z,70.83
2022-12-16T17:56:10.215Z,72.87
2022-12-16T17:58:57.683Z,76.83
2022-12-16T18:01:44.628Z,78.67
2022-12-16T18:04:31.808Z,86.07
2022-12-16T18:07:17.340Z,65.93
2022-12-16T18:10:02.831Z,73.40
2022-12-16T18:12:50.131Z,71.23
2022-12-16T18:15:35.947Z,74.13
2022-12-16T18:18:21.303Z,81.93
2022-12-16T18:21:08.321Z,86.80
2022-12-16T18:23:53.813Z,74.03
2022-12-16T18:26:39.143Z,81.97
2022-12-16T18:29:24.436Z,79.17
2022-12-16T18:32:09.728Z,85.77
2022-12-16T18:34:56.946Z,88.43
2022-12-16T18:37:43.617Z,81.20
2022-12-16T18:40:29.971Z,80.30
2022-12-16T18:43:15.275Z,81.77
2022-12-16T18:46:00.738Z,82.73
2022-12-16T18:48:46.310Z,76.70
2022-12-16T18:51:31.786Z,82.27
2022-12-16T18:54:18.689Z,76.17
2022-12-16T18:57:04.398Z,88.97
2022-12-16T18:59:50.640Z,81.13
2022-12-16T19:02:36.959Z,80.07
2022-12-16T19:05:22.796Z,80.50
2022-12-16T19:08:13.984Z,86.30
2022-12-16T19:11:01.122Z,87.13
2022-12-16T19:13:46.716Z,84.60
2022-12-16T19:16:33.049Z,89.63
2022-12-16T19:19:20.399Z,88.80
2022-12-16T19:22:06.484Z,83.67
2022-12-16T19:24:52.012Z,89.57
2022-12-16T19:27:38.796Z,84.90
2022-12-16T19:30:25.798Z,84.87
2022-12-16T19:33:11.054Z,90.60
2022-12-16T19:35:56.915Z,83.93
2022-12-16T19:38:42.347Z,86.47
2022-12-16T19:41:33.340Z,90.03
2022-12-16T19:44:20.682Z,86.97
2022-12-16T19:47:06.399Z,91.83
2022-12-16T19:49:52.059Z,85.13
2022-12-16T19:52:37.736Z,84.07
2022-12-16T19:55:24.128Z,90.10
2022-12-16T19:58:11.381Z,86.17
2022-12-16T20:00:58.987Z,87.83
2022-12-16T20:03:45.555Z,91.50
2022-12-16T20:06:31.399Z,93.63
2022-12-16T20:09:17.279Z,75.33
2022-12-16T20:12:03.038Z,76.00
2022-12-16T20:14:48.491Z,86.17
2022-12-16T20:17:35.464Z,81.70
2022-12-16T20:20:21.087Z,95.77
2022-12-16T20:23:06.746Z,95.67
2022-12-16T20:25:52.469Z,93.83
2022-12-16T20:28:42.036Z,89.93
2022-12-16T20:31:27.613Z,88.27
2022-12-16T20:34:15.450Z,87.60
2022-12-16T20:37:00.832Z,82.67
2022-12-16T20:39:52.915Z,78.43
2022-12-16T20:42:42.371Z,82.10
2022-12-16T20:45:28.631Z,87.17
2022-12-16T20:48:14.273Z,80.30
2022-12-16T20:51:01.835Z,78.87
2022-12-16T20:53:48.075Z,81.40
2022-12-16T20:56:34.093Z,87.33
2022-12-16T20:59:20.100Z,85.77
2022-12-16T21:05:10.829Z,90.73
2022-12-16T21:07:57.937Z,96.13
2022-12-16T21:10:43.655Z,76.67
2022-12-16T21:13:32.376Z,84.30
2022-12-16T21:16:19.344Z,91.50
2022-12-16T21:19:04.849Z,86.23
2022-12-16T21:21:50.272Z,80.13
2022-12-16T21:24:37.595Z,84.73
2022-12-16T21:27:23.394Z,86.13
2022-12-16T21:30:09.187Z,80.13
2022-12-16T21:32:55.152Z,96.33
2022-12-16T21:35:42.762Z,86.67
2022-12-16T21:38:28.563Z,83.33
2022-12-16T21:41:16.168Z,90.00
2022-12-16T21:44:01.882Z,83.03
2022-12-16T21:46:47.708Z,88.67
2022-12-16T21:49:33.820Z,80.27
2022-12-16T21:52:19.429Z,92.77
2022-12-16T21:55:05.129Z,86.70
2022-12-16T21:57:51.824Z,81.47
2022-12-16T22:00:39.741Z,80.33
2022-12-16T22:03:25.169Z,94.40
2022-12-16T22:06:10.625Z,123.33
2022-12-16T22:08:56.209Z,89.43
2022-12-16T22:11:41.954Z,85.37
2022-12-16T22:14:29.256Z,86.70
2022-12-16T22:17:14.546Z,91.00
2022-12-16T22:20:00.392Z,88.73
2022-12-16T22:22:45.824Z,88.80
2022-12-16T22:25:31.979Z,82.67
2022-12-16T22:28:17.547Z,84.60
2022-12-16T22:34:18.416Z,84.70
2022-12-16T22:37:04.073Z,94.07
2022-12-16T22:39:49.433Z,95.60
2022-12-16T22:42:34.721Z,101.63
2022-12-16T22:45:20.422Z,88.93
2022-12-16T22:48:07.275Z,79.40
2022-12-16T22:50:52.630Z,91.73
2022-12-16T22:53:42.218Z,88.23
2022-12-16T22:56:28.371Z,99.23
2022-12-16T22:59:13.963Z,87.90
2022-12-16T23:02:00.757Z,84.43
2022-12-16T23:04:48.117Z,79.13
2022-12-16T23:07:34.085Z,79.70
2022-12-16T23:10:19.732Z,82.53
2022-12-16T23:13:05.474Z,79.13
2022-12-16T23:15:51.201Z,85.23
2022-12-16T23:18:37.949Z,84.33
2022-12-16T23:21:33.417Z,92.40
2022-12-16T23:24:19.189Z,89.83
2022-12-16T23:27:04.978Z,86.73
2022-12-16T23:29:50.380Z,90.40
2022-12-16T23:32:30.621Z,87.40
2022-12-16T23:32:35.920Z,86.03
2022-12-16T23:35:21.694Z,83.60
2022-12-16T23:38:08.710Z,85.37
2022-12-16T23:40:59.546Z,82.37
2022-12-16T23:43:45.548Z,95.80
2022-12-16T23:46:30.837Z,83.73
2022-12-16T23:49:16.759Z,92.03
2022-12-16T23:52:01.942Z,86.17
2022-12-16T23:54:48.955Z,97.70
2022-12-16T23:57:34.210Z,89.33
